createdAt,value
2022-08-26T00:01:14.797Z,31.90
2022-08-26T00:03:50.716Z,30.90
2022-08-26T00:06:20.332Z,30.95
2022-08-26T00:08:50.277Z,31.60
2022-08-26T00:11:36.705Z,30.63
2022-08-26T00:14:06.292Z,32.50
2022-08-26T00:16:47.187Z,32.58
2022-08-26T00:19:18.632Z,28.92
2022-08-26T00:21:48.700Z,30.77
2022-08-26T00:24:23.952Z,29.80
2022-08-26T00:26:53.407Z,30.85
2022-08-26T00:29:22.870Z,28.67
2022-08-26T00:31:59.157Z,30.48
2022-08-26T00:34:28.728Z,29.30
2022-08-26T00:36:57.852Z,28.83
2022-08-26T00:39:27.899Z,30.13
2022-08-26T00:41:57.153Z,29.83
2022-08-26T00:44:26.714Z,29.40
2022-08-26T00:47:02.919Z,29.52
2022-08-26T00:49:39.133Z,29.02
2022-08-26T00:52:19.283Z,28.27
2022-08-26T00:54:55.430Z,28.45
2022-08-26T00:57:25.615Z,28.48
2022-08-26T01:00:00.568Z,28.08
2022-08-26T01:02:32.504Z,25.50
2022-08-26T01:05:05.189Z,26.13
2022-08-26T01:07:45.149Z,26.60
2022-08-26T01:10:17.708Z,25.63
2022-08-26T01:12:50.148Z,25.77
2022-08-26T01:15:24.675Z,26.48
2022-08-26T01:18:03.326Z,26.73
2022-08-26T01:20:40.834Z,26.75
2022-08-26T01:23:14.708Z,28.88
2022-08-26T01:25:52.257Z,28.42
2022-08-26T01:28:24.827Z,28.80
2022-08-26T01:30:57.154Z,31.10
2022-08-26T01:33:42.633Z,28.40
2022-08-26T01:36:13.053Z,29.13
2022-08-26T01:38:44.901Z,31.02
2022-08-26T01:41:19.742Z,30.33
2022-08-26T01:43:59.094Z,30.30
2022-08-26T01:46:32.594Z,31.38
2022-08-26T01:49:06.686Z,31.10
2022-08-26T01:51:39.827Z,28.92
2022-08-26T01:54:13.737Z,29.55
2022-08-26T01:56:48.960Z,29.73
2022-08-26T01:59:20.227Z,28.77
2022-08-26T02:01:55.835Z,29.77
2022-08-26T02:04:29.378Z,29.73
2022-08-26T02:06:59.482Z,30.83
2022-08-26T02:09:30.862Z,29.48
2022-08-26T02:12:01.827Z,30.23
2022-08-26T02:14:35.262Z,33.05
2022-08-26T02:17:19.326Z,29.40
2022-08-26T02:19:57.280Z,31.02
2022-08-26T02:22:26.645Z,31.25
2022-08-26T02:25:01.042Z,33.45
2022-08-26T02:27:34.539Z,32.28
2022-08-26T02:30:13.108Z,31.38
2022-08-26T02:32:43.340Z,31.67
2022-08-26T02:35:20.097Z,31.27
2022-08-26T02:37:50.245Z,31.00
2022-08-26T02:40:25.179Z,31.65
2022-08-26T02:42:56.052Z,30.63
2022-08-26T02:45:27.129Z,30.45
2022-08-26T02:47:58.174Z,30.05
2022-08-26T02:50:34.553Z,30.35
2022-08-26T02:53:04.138Z,28.67
2022-08-26T02:55:42.678Z,29.45
2022-08-26T02:58:15.614Z,28.45
2022-08-26T03:00:52.889Z,29.20
2022-08-26T03:03:35.729Z,29.33
2022-08-26T03:06:05.125Z,29.25
2022-08-26T03:08:34.271Z,29.20
2022-08-26T03:11:10.838Z,28.50
2022-08-26T03:13:41.016Z,28.15
2022-08-26T03:16:10.831Z,27.67
2022-08-26T03:18:52.200Z,26.75
2022-08-26T03:21:23.616Z,26.52
2022-08-26T03:23:53.703Z,27.15
2022-08-26T03:26:24.984Z,27.40
2022-08-26T03:29:12.299Z,27.27
2022-08-26T03:31:41.561Z,27.35
2022-08-26T03:34:12.641Z,28.00
2022-08-26T03:36:41.774Z,28.00
2022-08-26T03:39:11.143Z,27.50
2022-08-26T03:41:44.723Z,27.60
2022-08-26T03:44:14.721Z,29.95
2022-08-26T03:46:44.155Z,29.52
2022-08-26T03:49:18.437Z,29.05
2022-08-26T03:51:47.634Z,29.58
2022-08-26T03:54:17.454Z,31.30
2022-08-26T03:56:48.632Z,32.78
2022-08-26T03:59:17.854Z,34.13
2022-08-26T04:01:47.236Z,33.75
2022-08-26T04:04:24.565Z,35.47
2022-08-26T04:06:58.634Z,35.55
2022-08-26T04:09:29.441Z,35.25
2022-08-26T04:12:00.890Z,35.57
2022-08-26T04:14:37.174Z,36.55
2022-08-26T04:19:42.276Z,35.03
2022-08-26T04:22:11.473Z,34.97
2022-08-26T04:24:40.896Z,36.25
2022-08-26T04:27:22.358Z,34.80
2022-08-26T04:29:55.156Z,35.22
2022-08-26T04:32:32.459Z,36.13
2022-08-26T04:35:02.334Z,35.72
2022-08-26T04:37:44.075Z,35.75
2022-08-26T04:40:18.716Z,33.90
2022-08-26T04:42:50.366Z,36.17
2022-08-26T04:45:21.252Z,33.72
2022-08-26T04:47:58.018Z,33.60
2022-08-26T04:50:27.694Z,34.73
2022-08-26T04:52:57.155Z,34.63
2022-08-26T04:55:39.890Z,33.78
2022-08-26T04:58:19.456Z,33.53
2022-08-26T05:00:56.362Z,34.38
2022-08-26T05:03:26.843Z,33.78
2022-08-26T05:06:11.710Z,32.58
2022-08-26T05:08:41.596Z,32.63
2022-08-26T05:11:15.988Z,32.40
2022-08-26T05:13:47.151Z,34.17
2022-08-26T05:19:06.493Z,31.40
2022-08-26T05:21:38.273Z,32.63
2022-08-26T05:24:16.296Z,33.00
2022-08-26T05:26:51.792Z,31.33
2022-08-26T05:29:28.368Z,30.52
2022-08-26T05:31:57.615Z,30.50
2022-08-26T05:34:30.270Z,31.42
2022-08-26T05:37:02.417Z,30.63
2022-08-26T05:39:33.546Z,32.55
2022-08-26T05:42:07.917Z,31.08
2022-08-26T05:44:55.783Z,35.25
2022-08-26T05:47:25.808Z,29.42
2022-08-26T05:50:00.701Z,31.77
2022-08-26T05:52:35.123Z,28.60
2022-08-26T05:55:04.307Z,34.63
2022-08-26T05:57:36.329Z,26.58
2022-08-26T06:00:12.156Z,26.08
2022-08-26T06:02:44.056Z,28.58
2022-08-26T06:05:23.167Z,25.00
2022-08-26T06:08:05.663Z,25.02
2022-08-26T06:10:40.444Z,26.52
2022-08-26T06:13:12.399Z,25.85
2022-08-26T06:15:45.255Z,27.27
2022-08-26T06:18:16.327Z,25.45
2022-08-26T06:20:57.850Z,26.50
2022-08-26T06:23:42.576Z,24.05
2022-08-26T06:26:17.918Z,19.92
2022-08-26T06:28:47.272Z,15.48
2022-08-26T06:31:18.567Z,14.85
2022-08-26T06:33:47.937Z,14.88
2022-08-26T06:36:21.125Z,13.82
2022-08-26T06:38:51.226Z,13.02
2022-08-26T06:41:22.472Z,13.85
2022-08-26T06:43:52.251Z,12.70
2022-08-26T06:46:24.357Z,12.63
2022-08-26T06:48:57.775Z,12.70
2022-08-26T06:51:34.578Z,11.27
2022-08-26T06:54:06.698Z,12.32
2022-08-26T06:56:39.952Z,12.18
2022-08-26T06:59:09.952Z,11.65
2022-08-26T07:01:45.652Z,16.48
2022-08-26T07:04:21.899Z,12.68
2022-08-26T07:06:57.994Z,12.15
2022-08-26T07:09:34.825Z,11.57
2022-08-26T07:12:06.948Z,11.80
2022-08-26T07:14:36.626Z,11.67
2022-08-26T07:17:13.715Z,11.13
2022-08-26T07:19:48.702Z,11.70
2022-08-26T07:22:18.407Z,11.95
2022-08-26T07:24:47.877Z,11.50
2022-08-26T07:27:18.575Z,11.30
2022-08-26T07:29:48.088Z,11.77
2022-08-26T07:32:23.085Z,10.25
2022-08-26T07:34:52.226Z,10.32
2022-08-26T07:37:22.294Z,10.88
2022-08-26T07:39:52.526Z,11.02
2022-08-26T07:42:23.704Z,11.02
2022-08-26T07:44:53.270Z,10.32
2022-08-26T07:47:25.639Z,11.13
2022-08-26T07:49:57.321Z,10.35
2022-08-26T07:52:28.245Z,10.65
2022-08-26T07:54:58.447Z,9.25
2022-08-26T07:57:28.316Z,9.98
2022-08-26T07:59:57.942Z,8.85
2022-08-26T08:02:30.444Z,8.88
2022-08-26T08:04:59.922Z,9.13
2022-08-26T08:07:44.782Z,8.95
2022-08-26T08:10:21.329Z,8.57
2022-08-26T08:12:52.400Z,9.05
2022-08-26T08:18:00.235Z,8.88
2022-08-26T08:20:31.776Z,9.48
2022-08-26T08:23:03.875Z,9.50
2022-08-26T08:25:33.989Z,9.40
2022-08-26T08:28:03.045Z,8.82
2022-08-26T08:30:32.454Z,8.43
2022-08-26T08:33:12.080Z,8.90
2022-08-26T08:35:43.308Z,8.77
2022-08-26T08:38:12.370Z,9.60
2022-08-26T08:40:42.824Z,9.00
2022-08-26T08:43:19.356Z,9.17
2022-08-26T08:45:53.369Z,8.48
2022-08-26T08:48:29.050Z,9.27
2022-08-26T08:51:07.746Z,9.38
2022-08-26T08:53:41.269Z,10.70
2022-08-26T08:56:23.265Z,10.20
2022-08-26T09:01:46.862Z,13.18
2022-08-26T09:04:46.716Z,13.48
2022-08-26T09:07:21.558Z,10.32
2022-08-26T09:09:56.825Z,10.68
2022-08-26T09:12:29.910Z,9.90
2022-08-26T09:15:04.360Z,10.00
2022-08-26T09:17:50.514Z,9.85
2022-08-26T09:20:37.985Z,12.90
2022-08-26T09:23:08.961Z,9.05
2022-08-26T09:25:48.370Z,8.82
2022-08-26T09:28:20.423Z,9.43
2022-08-26T09:31:05.729Z,8.68
2022-08-26T09:33:42.385Z,9.73
2022-08-26T09:36:25.953Z,8.80
2022-08-26T09:38:56.078Z,9.63
2022-08-26T09:41:31.234Z,9.38
2022-08-26T09:44:15.601Z,9.48
2022-08-26T09:46:54.199Z,10.00
2022-08-26T09:49:36.391Z,9.98
2022-08-26T09:52:13.216Z,9.75
2022-08-26T09:54:44.222Z,9.48
2022-08-26T09:57:27.359Z,10.52
2022-08-26T10:00:00.676Z,9.75
2022-08-26T10:02:52.724Z,9.70
2022-08-26T10:05:33.373Z,9.13
2022-08-26T10:08:19.565Z,9.13
2022-08-26T10:10:53.127Z,8.80
2022-08-26T10:13:29.583Z,9.50
2022-08-26T10:16:10.727Z,8.43
2022-08-26T10:21:18.057Z,8.85
2022-08-26T10:23:52.931Z,9.00
2022-08-26T10:26:28.734Z,8.85
2022-08-26T10:29:15.359Z,9.48
2022-08-26T10:31:51.462Z,9.48
2022-08-26T10:34:21.385Z,8.60
2022-08-26T10:37:13.937Z,8.60
2022-08-26T10:39:59.812Z,8.27
2022-08-26T10:42:35.189Z,8.00
2022-08-26T10:45:11.899Z,8.38
2022-08-26T10:47:52.336Z,8.30
2022-08-26T10:50:24.201Z,8.60
2022-08-26T10:53:02.369Z,8.68
2022-08-26T10:55:40.677Z,8.50
2022-08-26T10:58:26.544Z,8.40
2022-08-26T11:01:22.826Z,9.15
2022-08-26T11:04:00.770Z,8.02
2022-08-26T11:06:31.437Z,8.32
2022-08-26T11:09:02.336Z,8.82
2022-08-26T11:11:54.116Z,8.75
2022-08-26T11:14:56.186Z,8.65
2022-08-26T11:18:00.582Z,7.97
2022-08-26T11:20:36.288Z,6.63
2022-08-26T11:23:40.469Z,7.20
2022-08-26T11:26:35.821Z,8.40
2022-08-26T11:29:13.522Z,7.68
2022-08-26T11:31:58.101Z,7.38
2022-08-26T11:35:02.156Z,7.85
2022-08-26T11:37:37.258Z,7.95
2022-08-26T11:40:15.035Z,7.70
2022-08-26T11:42:55.154Z,7.95
2022-08-26T11:45:38.968Z,7.55
2022-08-26T11:48:17.314Z,7.07
2022-08-26T11:50:54.981Z,8.63
2022-08-26T11:53:26.168Z,7.75
2022-08-26T11:55:57.853Z,8.20
2022-08-26T11:58:29.709Z,7.60
2022-08-26T12:01:04.059Z,8.20
2022-08-26T12:03:40.674Z,11.80
2022-08-26T12:06:16.666Z,8.35
2022-08-26T12:08:47.542Z,11.73
2022-08-26T12:11:30.099Z,8.18
2022-08-26T12:14:07.414Z,7.75
2022-08-26T12:16:41.561Z,8.23
2022-08-26T12:19:25.853Z,8.60
2022-08-26T12:22:03.169Z,8.00
2022-08-26T12:24:33.010Z,8.90
2022-08-26T12:27:17.417Z,7.90
2022-08-26T12:29:48.396Z,8.68
2022-08-26T12:34:50.714Z,7.70
2022-08-26T12:37:20.646Z,11.00
2022-08-26T12:39:49.942Z,15.60
2022-08-26T12:42:42.178Z,8.25
2022-08-26T12:45:30.133Z,23.25
2022-08-26T12:48:14.818Z,13.57
2022-08-26T12:57:20.518Z,7.93
2022-08-26T12:59:49.679Z,10.73
2022-08-26T13:02:37.316Z,8.88
2022-08-26T13:05:11.861Z,8.07
2022-08-26T13:07:41.281Z,9.57
2022-08-26T13:10:10.503Z,8.80
2022-08-26T13:12:42.191Z,24.08
2022-08-26T13:15:11.682Z,8.02
2022-08-26T13:17:40.900Z,12.60
2022-08-26T13:20:11.037Z,8.30
2022-08-26T13:25:10.491Z,8.37
2022-08-26T13:27:41.748Z,8.18
2022-08-26T13:30:17.407Z,7.93
2022-08-26T13:32:47.517Z,8.05
2022-08-26T13:35:17.171Z,9.68
2022-08-26T13:37:46.777Z,7.75
2022-08-26T13:40:15.981Z,13.18
2022-08-26T13:42:49.903Z,8.20
2022-08-26T13:45:25.288Z,8.57
2022-08-26T13:47:54.490Z,10.10
2022-08-26T13:50:23.488Z,9.10
2022-08-26T13:52:53.212Z,7.90
2022-08-26T13:55:22.335Z,6.90
2022-08-26T13:57:58.807Z,8.88
2022-08-26T14:00:28.258Z,9.88
2022-08-26T14:02:58.099Z,7.95
2022-08-26T14:05:27.575Z,7.70
2022-08-26T14:07:56.993Z,7.90
2022-08-26T14:10:27.865Z,7.90
2022-08-26T14:12:59.189Z,7.40
2022-08-26T14:15:29.089Z,7.45
2022-08-26T14:18:04.514Z,7.80
2022-08-26T14:20:46.239Z,8.13
2022-08-26T14:23:15.609Z,7.30
2022-08-26T14:25:45.158Z,8.30
2022-08-26T14:28:16.694Z,7.70
2022-08-26T14:30:58.312Z,8.82
2022-08-26T14:33:35.843Z,7.38
2022-08-26T14:36:19.005Z,9.15
2022-08-26T14:38:48.258Z,7.15
2022-08-26T14:41:18.828Z,7.80
2022-08-26T14:43:54.081Z,7.65
2022-08-26T14:46:26.653Z,6.88
2022-08-26T14:51:31.463Z,7.18
2022-08-26T14:54:15.816Z,7.38
2022-08-26T14:56:49.163Z,7.55
2022-08-26T14:59:23.453Z,7.40
2022-08-26T15:01:53.118Z,7.57
2022-08-26T15:04:22.946Z,8.20
2022-08-26T15:06:54.061Z,7.78
2022-08-26T15:09:28.834Z,8.00
2022-08-26T15:11:58.567Z,8.02
2022-08-26T15:14:32.796Z,9.07
2022-08-26T15:17:02.943Z,8.43
2022-08-26T15:19:32.216Z,7.47
2022-08-26T15:22:01.694Z,8.68
2022-08-26T15:24:30.802Z,8.23
2022-08-26T15:27:00.072Z,8.73
2022-08-26T15:29:31.705Z,8.70
2022-08-26T15:32:06.805Z,13.27
2022-08-26T15:34:36.306Z,10.80
2022-08-26T15:37:05.712Z,13.95
2022-08-26T15:39:34.995Z,12.70
2022-08-26T15:42:04.555Z,13.40
2022-08-26T15:44:36.329Z,11.68
2022-08-26T15:47:11.113Z,15.57
2022-08-26T15:49:40.614Z,12.30
2022-08-26T15:52:09.956Z,13.05
2022-08-26T15:54:44.158Z,16.08
2022-08-26T15:57:15.358Z,12.70
2022-08-26T15:59:52.719Z,30.60
2022-08-26T16:02:22.524Z,36.83
2022-08-26T16:04:51.706Z,27.60
2022-08-26T16:07:28.868Z,36.42
2022-08-26T16:09:58.484Z,31.52
2022-08-26T16:12:27.861Z,25.17
2022-08-26T16:17:39.194Z,36.83
2022-08-26T16:20:13.718Z,26.80
2022-08-26T16:22:42.807Z,25.00
2022-08-26T16:25:12.713Z,23.52
2022-08-26T16:27:42.003Z,18.55
2022-08-26T16:30:22.420Z,20.33
2022-08-26T16:32:51.861Z,19.98
2022-08-26T16:35:21.289Z,28.65
2022-08-26T16:37:56.215Z,22.60
2022-08-26T16:40:26.144Z,16.98
2022-08-26T16:42:55.479Z,16.75
2022-08-26T16:45:27.395Z,13.93
2022-08-26T16:47:57.338Z,21.30
2022-08-26T16:50:26.742Z,17.63
2022-08-26T16:52:57.836Z,19.00
2022-08-26T16:55:27.321Z,25.80
2022-08-26T16:57:57.136Z,22.17
2022-08-26T17:00:30.568Z,19.60
2022-08-26T17:03:01.585Z,17.75
2022-08-26T17:05:31.487Z,15.85
2022-08-26T17:08:01.882Z,16.63
2022-08-26T17:10:32.459Z,13.90
2022-08-26T17:13:06.923Z,13.68
2022-08-26T17:15:38.408Z,12.90
2022-08-26T17:18:08.663Z,11.52
2022-08-26T17:20:48.732Z,12.27
2022-08-26T17:23:19.396Z,11.75
2022-08-26T17:25:49.273Z,11.47
2022-08-26T17:28:18.406Z,11.93
2022-08-26T17:30:54.828Z,12.38
2022-08-26T17:33:24.800Z,12.10
2022-08-26T17:36:00.117Z,11.98
2022-08-26T17:38:30.725Z,12.03
2022-08-26T17:41:00.869Z,11.60
2022-08-26T17:43:30.978Z,11.63
2022-08-26T17:46:08.525Z,12.38
2022-08-26T17:48:39.338Z,13.73
2022-08-26T17:51:10.679Z,14.60
2022-08-26T17:56:12.059Z,13.65
2022-08-26T17:58:50.984Z,12.57
2022-08-26T18:01:30.749Z,15.63
2022-08-26T18:04:00.904Z,13.07
2022-08-26T18:06:31.239Z,13.75
2022-08-26T18:09:00.876Z,12.40
2022-08-26T18:11:36.624Z,13.07
2022-08-26T18:14:23.966Z,13.88
2022-08-26T18:16:55.441Z,14.40
2022-08-26T18:19:25.116Z,14.05
2022-08-26T18:21:54.433Z,17.10
2022-08-26T18:24:24.321Z,16.25
2022-08-26T18:26:53.481Z,17.42
2022-08-26T18:29:29.915Z,16.30
2022-08-26T18:32:01.492Z,17.83
2022-08-26T18:34:31.828Z,17.83
2022-08-26T18:37:01.308Z,17.57
2022-08-26T18:39:31.255Z,17.33
2022-08-26T18:42:01.719Z,16.85
2022-08-26T18:44:31.372Z,21.63
2022-08-26T18:47:04.614Z,18.10
2022-08-26T18:49:39.094Z,18.83
2022-08-26T18:52:08.911Z,19.17
2022-08-26T18:54:38.674Z,20.00
2022-08-26T18:57:08.172Z,20.40
2022-08-26T18:59:37.413Z,19.75
2022-08-26T19:02:09.865Z,19.45
2022-08-26T19:04:40.148Z,19.63
2022-08-26T19:07:09.690Z,19.50
2022-08-26T19:09:44.268Z,21.42
2022-08-26T19:12:14.762Z,21.83
2022-08-26T19:14:46.338Z,21.98
2022-08-26T19:17:18.287Z,30.02
2022-08-26T19:19:53.348Z,19.50
2022-08-26T19:22:24.384Z,18.83
2022-08-26T19:24:53.913Z,17.63
2022-08-26T19:27:23.307Z,17.45
2022-08-26T19:29:52.816Z,17.73
2022-08-26T19:32:29.951Z,19.85
2022-08-26T19:34:59.638Z,18.88
2022-08-26T19:37:28.894Z,17.95
2022-08-26T19:40:04.486Z,19.40
2022-08-26T19:42:35.294Z,19.02
2022-08-26T19:45:25.267Z,19.70
2022-08-26T19:47:57.216Z,22.20
2022-08-26T19:50:28.797Z,20.85
2022-08-26T19:55:27.710Z,19.77
2022-08-26T19:57:57.346Z,18.55
2022-08-26T20:00:31.635Z,22.67
2022-08-26T20:03:03.539Z,21.77
2022-08-26T20:05:32.993Z,22.83
2022-08-26T20:08:07.147Z,22.88
2022-08-26T20:10:41.070Z,23.50
2022-08-26T20:15:58.497Z,22.73
2022-08-26T20:18:42.759Z,21.88
2022-08-26T20:21:29.045Z,22.08
2022-08-26T20:24:08.186Z,20.98
2022-08-26T20:26:39.787Z,20.58
2022-08-26T20:31:42.615Z,18.45
2022-08-26T20:34:20.717Z,20.13
2022-08-26T20:36:51.393Z,22.40
2022-08-26T20:39:28.824Z,24.77
2022-08-26T20:41:58.580Z,22.02
2022-08-26T20:44:27.952Z,20.92
2022-08-26T20:47:02.839Z,21.40
2022-08-26T20:49:34.241Z,19.38
2022-08-26T20:52:05.563Z,19.30
2022-08-26T20:54:34.720Z,19.60
2022-08-26T20:57:04.137Z,19.20
2022-08-26T20:59:38.550Z,20.38
2022-08-26T21:02:12.826Z,20.83
2022-08-26T21:04:44.372Z,19.67
2022-08-26T21:09:42.629Z,18.20
2022-08-26T21:12:17.920Z,18.63
2022-08-26T21:14:49.689Z,20.20
2022-08-26T21:17:19.713Z,19.20
2022-08-26T21:19:50.800Z,21.65
2022-08-26T21:22:25.194Z,20.35
2022-08-26T21:24:54.434Z,21.08
2022-08-26T21:27:26.599Z,20.00
2022-08-26T21:29:57.681Z,20.77
2022-08-26T21:32:26.895Z,21.13
2022-08-26T21:34:59.642Z,19.67
2022-08-26T21:37:30.104Z,19.73
2022-08-26T21:40:01.538Z,21.83
2022-08-26T21:42:35.142Z,20.88
2022-08-26T21:45:06.150Z,20.75
2022-08-26T21:47:36.003Z,21.02
2022-08-26T21:50:09.038Z,19.80
2022-08-26T21:52:38.891Z,19.85
2022-08-26T21:55:09.519Z,20.02
2022-08-26T21:57:46.066Z,20.20
2022-08-26T22:00:16.706Z,20.75
2022-08-26T22:02:46.098Z,19.23
2022-08-26T22:05:22.265Z,19.25
2022-08-26T22:07:51.638Z,20.23
2022-08-26T22:10:26.206Z,18.80
2022-08-26T22:12:55.593Z,20.20
2022-08-26T22:15:27.090Z,19.63
2022-08-26T22:17:56.326Z,19.65
2022-08-26T22:20:27.357Z,19.38
2022-08-26T22:22:56.759Z,19.40
2022-08-26T22:25:25.924Z,20.40
2022-08-26T22:27:55.573Z,19.67
2022-08-26T22:30:24.994Z,20.08
2022-08-26T22:32:54.497Z,20.33
2022-08-26T22:35:29.729Z,21.80
2022-08-26T22:38:01.362Z,21.02
2022-08-26T22:43:04.118Z,20.05
2022-08-26T22:45:39.421Z,20.63
2022-08-26T22:48:08.953Z,21.38
2022-08-26T22:50:39.253Z,20.08
2022-08-26T22:53:11.169Z,20.65
2022-08-26T22:55:40.571Z,20.23
2022-08-26T22:58:09.889Z,19.65
2022-08-26T23:00:44.483Z,19.83
2022-08-26T23:03:14.203Z,20.13
2022-08-26T23:05:48.793Z,20.23
2022-08-26T23:08:22.041Z,20.17
2022-08-26T23:11:01.389Z,20.10
2022-08-26T23:13:31.006Z,19.88
2022-08-26T23:18:39.148Z,19.08
2022-08-26T23:21:08.775Z,19.50
2022-08-26T23:23:46.444Z,19.38
2022-08-26T23:26:17.734Z,21.02
2022-08-26T23:31:24.105Z,20.50
2022-08-26T23:34:06.359Z,20.80
2022-08-26T23:36:36.696Z,22.48
2022-08-26T23:39:08.975Z,21.38
2022-08-26T23:41:38.445Z,22.83
2022-08-26T23:44:08.984Z,23.52
2022-08-26T23:46:38.540Z,23.10
2022-08-26T23:49:08.228Z,24.00
2022-08-26T23:51:50.730Z,23.50
2022-08-26T23:54:22.348Z,24.02
2022-08-26T23:56:56.805Z,24.65
2022-08-26T23:59:26.319Z,23.85
